RYR2116 LGIR-LGTS
Flight info
| Callsign | RYR2116 |
|---|---|
| Flight time | 0h 57m |
| Altitude | 30000 |
| Route | EPALO M749 DIRMI UM749 SIGFO DCT BAMOS UL617 LEKPO |
| Aircraft | B38M/M-SADE3FGILRWY/SB1 |
Departure
| Time | 2026-05-04 17:17 |
|---|---|
| Airport | Heraklion International Nikos Kazantzakis Airport (LGIR) |
Arrival
| Time | 2026-05-04 18:15 |
|---|---|
| Airport | Thessaloniki Macedonia International Airport (LGTS) |
| Time | Latitude | Longitude | Altitude | Speed | Heading |
|---|---|---|---|---|---|
| 2026-05-04 17:10 | 35.33850 | 25.17553 | 92 ft | 0 kts | 272° |
| 2026-05-04 17:13 | 35.33890 | 25.17538 | 93 ft | 5 kts | 21° |
| 2026-05-04 17:14 | 35.33902 | 25.17663 | 94 ft | 5 kts | 96° |
| 2026-05-04 17:14 | 35.33896 | 25.17730 | 97 ft | 13 kts | 96° |
| 2026-05-04 17:14 | 35.33872 | 25.18064 | 95 ft | 24 kts | 95° |
| 2026-05-04 17:15 | 35.33858 | 25.18262 | 101 ft | 23 kts | 94° |
| 2026-05-04 17:15 | 35.33825 | 25.18722 | 92 ft | 25 kts | 95° |
| 2026-05-04 17:16 | 35.33827 | 25.18955 | 90 ft | 11 kts | 59° |
| 2026-05-04 17:16 | 35.33955 | 25.18304 | 96 ft | 105 kts | 275° |
| 2026-05-04 17:17 | 35.34027 | 25.17203 | 235 ft | 143 kts | 277° |
| 2026-05-04 17:17 | 35.35418 | 25.13886 | 2247 ft | 168 kts | 314° |
| 2026-05-04 17:18 | 35.36447 | 25.13032 | 2811 ft | 193 kts | 335° |
| 2026-05-04 17:18 | 35.39278 | 25.11845 | 4043 ft | 235 kts | 341° |
| 2026-05-04 17:19 | 35.42508 | 25.10665 | 6063 ft | 240 kts | 343° |
| 2026-05-04 17:19 | 35.45758 | 25.09554 | 7931 ft | 247 kts | 343° |
| 2026-05-04 17:20 | 35.49135 | 25.08427 | 9458 ft | 258 kts | 344° |
| 2026-05-04 17:20 | 35.52719 | 25.07239 | 10493 ft | 282 kts | 344° |
| 2026-05-04 17:20 | 35.54666 | 25.06592 | 10806 ft | 296 kts | 344° |
| 2026-05-04 17:21 | 35.58710 | 25.05258 | 11866 ft | 305 kts | 345° |
| 2026-05-04 17:21 | 35.62823 | 25.03904 | 12884 ft | 311 kts | 345° |
| 2026-05-04 17:22 | 35.64922 | 25.03213 | 13368 ft | 314 kts | 345° |
| 2026-05-04 17:22 | 35.67044 | 25.02514 | 13838 ft | 317 kts | 345° |
| 2026-05-04 17:23 | 35.73416 | 25.00109 | 15152 ft | 321 kts | 338° |
| 2026-05-04 17:23 | 35.75498 | 24.99104 | 15778 ft | 321 kts | 339° |
| 2026-05-04 17:23 | 35.79693 | 24.97119 | 17117 ft | 325 kts | 339° |
| 2026-05-04 17:24 | 35.81817 | 24.96124 | 17754 ft | 327 kts | 339° |
| 2026-05-04 17:24 | 35.88222 | 24.93128 | 19402 ft | 331 kts | 338° |
| 2026-05-04 17:25 | 35.90379 | 24.92118 | 19911 ft | 332 kts | 338° |
| 2026-05-04 17:25 | 35.94706 | 24.90092 | 20905 ft | 333 kts | 338° |
| 2026-05-04 17:26 | 35.99072 | 24.88046 | 21681 ft | 341 kts | 338° |
| 2026-05-04 17:26 | 36.05750 | 24.84908 | 22966 ft | 345 kts | 338° |
| 2026-05-04 17:27 | 36.10243 | 24.82779 | 23780 ft | 347 kts | 337° |
| 2026-05-04 17:27 | 36.14760 | 24.80638 | 24488 ft | 349 kts | 337° |
| 2026-05-04 17:28 | 36.19311 | 24.78478 | 25477 ft | 352 kts | 337° |
| 2026-05-04 17:29 | 36.26227 | 24.75191 | 26697 ft | 363 kts | 338° |
| 2026-05-04 17:29 | 36.33336 | 24.71804 | 28103 ft | 367 kts | 337° |
| 2026-05-04 17:30 | 36.40533 | 24.68370 | 29412 ft | 372 kts | 337° |
| 2026-05-04 17:31 | 36.45355 | 24.66064 | 30220 ft | 375 kts | 337° |
| 2026-05-04 17:31 | 36.52769 | 24.62515 | 30996 ft | 387 kts | 337° |
| 2026-05-04 17:32 | 36.57808 | 24.60097 | 31640 ft | 390 kts | 337° |
| 2026-05-04 17:33 | 36.65451 | 24.56424 | 32582 ft | 395 kts | 337° |
| 2026-05-04 17:33 | 36.68022 | 24.55187 | 32905 ft | 397 kts | 337° |
| 2026-05-04 17:34 | 36.75618 | 24.51354 | 34128 ft | 393 kts | 331° |
| 2026-05-04 17:34 | 36.78048 | 24.49795 | 34464 ft | 393 kts | 332° |
| 2026-05-04 17:35 | 36.85397 | 24.45226 | 35300 ft | 395 kts | 332° |
| 2026-05-04 17:35 | 36.90327 | 24.42183 | 35833 ft | 396 kts | 332° |
| 2026-05-04 17:35 | 36.92797 | 24.40658 | 36085 ft | 396 kts | 332° |
| 2026-05-04 17:36 | 36.95236 | 24.39151 | 36327 ft | 397 kts | 332° |
| 2026-05-04 17:36 | 36.97712 | 24.37619 | 36565 ft | 397 kts | 332° |
| 2026-05-04 17:36 | 37.00189 | 24.36087 | 36845 ft | 397 kts | 332° |
| 2026-05-04 17:36 | 37.02674 | 24.34548 | 36999 ft | 400 kts | 332° |
| 2026-05-04 17:37 | 37.05168 | 24.33002 | 37222 ft | 400 kts | 332° |
| 2026-05-04 17:37 | 37.07663 | 24.31454 | 37443 ft | 401 kts | 332° |
| 2026-05-04 17:37 | 37.10162 | 24.29903 | 37666 ft | 401 kts | 332° |
| 2026-05-04 17:37 | 37.12662 | 24.28350 | 37881 ft | 401 kts | 332° |
| 2026-05-04 17:38 | 37.15167 | 24.26793 | 38066 ft | 402 kts | 332° |
| 2026-05-04 17:38 | 37.20156 | 24.23689 | 38113 ft | 402 kts | 332° |
| 2026-05-04 17:39 | 37.27675 | 24.19001 | 38119 ft | 404 kts | 332° |
| 2026-05-04 17:39 | 37.32711 | 24.15856 | 38124 ft | 404 kts | 332° |
| 2026-05-04 17:40 | 37.37747 | 24.12705 | 38122 ft | 404 kts | 332° |
| 2026-05-04 17:40 | 37.42749 | 24.09571 | 38124 ft | 404 kts | 332° |
| 2026-05-04 17:41 | 37.47785 | 24.06412 | 38096 ft | 404 kts | 332° |
| 2026-05-04 17:41 | 37.52804 | 24.03258 | 38124 ft | 403 kts | 332° |
| 2026-05-04 17:42 | 37.57829 | 24.00096 | 38125 ft | 404 kts | 332° |
| 2026-05-04 17:42 | 37.62855 | 23.96927 | 38125 ft | 404 kts | 332° |
| 2026-05-04 17:43 | 37.67842 | 23.93779 | 38127 ft | 404 kts | 332° |
| 2026-05-04 17:43 | 37.72864 | 23.90604 | 38127 ft | 404 kts | 332° |
| 2026-05-04 17:44 | 37.77888 | 23.87423 | 38128 ft | 404 kts | 332° |
| 2026-05-04 17:44 | 37.82918 | 23.84234 | 38133 ft | 405 kts | 332° |
| 2026-05-04 17:45 | 37.87975 | 23.81109 | 38118 ft | 405 kts | 340° |
| 2026-05-04 17:45 | 37.90717 | 23.80357 | 38145 ft | 405 kts | 351° |
| 2026-05-04 17:45 | 37.93486 | 23.79895 | 38099 ft | 408 kts | 349° |
| 2026-05-04 17:46 | 37.99127 | 23.78993 | 38146 ft | 409 kts | 351° |
| 2026-05-04 17:46 | 38.04778 | 23.78159 | 38109 ft | 408 kts | 351° |
| 2026-05-04 17:47 | 38.10426 | 23.77341 | 38111 ft | 409 kts | 351° |
| 2026-05-04 17:47 | 38.16075 | 23.76524 | 38111 ft | 409 kts | 351° |
| 2026-05-04 17:48 | 38.21693 | 23.75712 | 38119 ft | 409 kts | 351° |
| 2026-05-04 17:48 | 38.27340 | 23.74895 | 38107 ft | 409 kts | 351° |
| 2026-05-04 17:49 | 38.32978 | 23.74078 | 38132 ft | 408 kts | 351° |
| 2026-05-04 17:49 | 38.38613 | 23.73261 | 38132 ft | 407 kts | 351° |
| 2026-05-04 17:50 | 38.44248 | 23.72443 | 38128 ft | 407 kts | 351° |
| 2026-05-04 17:50 | 38.49831 | 23.71630 | 38129 ft | 407 kts | 351° |
| 2026-05-04 17:51 | 38.55458 | 23.70809 | 38128 ft | 407 kts | 351° |
| 2026-05-04 17:51 | 38.61082 | 23.69988 | 38125 ft | 407 kts | 351° |
| 2026-05-04 17:52 | 38.63886 | 23.69578 | 37590 ft | 405 kts | 351° |
| 2026-05-04 17:52 | 38.66689 | 23.69169 | 36982 ft | 404 kts | 351° |
| 2026-05-04 17:52 | 38.69464 | 23.68762 | 36515 ft | 399 kts | 351° |
| 2026-05-04 17:52 | 38.72176 | 23.68365 | 35914 ft | 398 kts | 351° |
| 2026-05-04 17:53 | 38.74939 | 23.67960 | 35187 ft | 402 kts | 351° |
| 2026-05-04 17:53 | 38.77735 | 23.67550 | 34393 ft | 406 kts | 351° |
| 2026-05-04 17:53 | 38.80556 | 23.67136 | 33536 ft | 410 kts | 352° |
| 2026-05-04 17:53 | 38.83405 | 23.66719 | 32717 ft | 413 kts | 352° |
| 2026-05-04 17:54 | 38.86263 | 23.66298 | 31952 ft | 415 kts | 353° |
| 2026-05-04 17:54 | 38.89142 | 23.65874 | 31169 ft | 422 kts | 354° |
| 2026-05-04 17:54 | 38.92100 | 23.65439 | 30304 ft | 434 kts | 354° |
| 2026-05-04 17:54 | 38.95081 | 23.64861 | 29333 ft | 445 kts | 349° |
| 2026-05-04 17:55 | 38.98116 | 23.64041 | 28632 ft | 447 kts | 349° |
| 2026-05-04 17:55 | 39.01180 | 23.63245 | 28096 ft | 449 kts | 350° |
| 2026-05-04 17:55 | 39.04234 | 23.62469 | 27441 ft | 445 kts | 350° |
| 2026-05-04 17:55 | 39.07266 | 23.61706 | 26783 ft | 443 kts | 350° |
| 2026-05-04 17:56 | 39.10283 | 23.60948 | 26125 ft | 441 kts | 350° |
| 2026-05-04 17:56 | 39.13284 | 23.60194 | 25480 ft | 438 kts | 350° |
| 2026-05-04 17:56 | 39.16270 | 23.59443 | 24841 ft | 437 kts | 350° |
| 2026-05-04 17:56 | 39.19246 | 23.58694 | 24205 ft | 435 kts | 350° |
| 2026-05-04 17:57 | 39.22168 | 23.57959 | 23563 ft | 433 kts | 349° |
| 2026-05-04 17:57 | 39.25120 | 23.57215 | 22837 ft | 431 kts | 349° |
| 2026-05-04 17:57 | 39.28050 | 23.56476 | 22199 ft | 427 kts | 349° |
| 2026-05-04 17:57 | 39.30902 | 23.55456 | 21514 ft | 425 kts | 340° |
| 2026-05-04 17:58 | 39.33650 | 23.54097 | 20917 ft | 421 kts | 340° |
| 2026-05-04 17:58 | 39.36373 | 23.52775 | 20359 ft | 416 kts | 340° |
| 2026-05-04 17:58 | 39.39074 | 23.51465 | 19789 ft | 413 kts | 340° |
| 2026-05-04 17:58 | 39.41753 | 23.50168 | 19179 ft | 410 kts | 340° |
| 2026-05-04 17:59 | 39.44384 | 23.48896 | 18609 ft | 407 kts | 340° |
| 2026-05-04 17:59 | 39.47024 | 23.47619 | 18021 ft | 403 kts | 340° |
| 2026-05-04 17:59 | 39.52222 | 23.45101 | 16899 ft | 394 kts | 341° |
| 2026-05-04 18:00 | 39.54778 | 23.43862 | 16373 ft | 390 kts | 341° |
| 2026-05-04 18:00 | 39.57303 | 23.42637 | 15855 ft | 385 kts | 341° |
| 2026-05-04 18:00 | 39.59802 | 23.41422 | 15351 ft | 382 kts | 341° |
| 2026-05-04 18:00 | 39.62280 | 23.40218 | 14833 ft | 379 kts | 341° |
| 2026-05-04 18:01 | 39.64737 | 23.39022 | 14363 ft | 375 kts | 341° |
| 2026-05-04 18:01 | 39.67139 | 23.37853 | 13893 ft | 372 kts | 341° |
| 2026-05-04 18:01 | 39.69548 | 23.36679 | 13357 ft | 369 kts | 341° |
| 2026-05-04 18:02 | 39.74309 | 23.34356 | 12357 ft | 362 kts | 341° |
| 2026-05-04 18:02 | 39.76660 | 23.33207 | 11855 ft | 359 kts | 341° |
| 2026-05-04 18:02 | 39.78985 | 23.32070 | 11439 ft | 354 kts | 341° |
| 2026-05-04 18:02 | 39.81251 | 23.30960 | 11251 ft | 343 kts | 341° |
| 2026-05-04 18:03 | 39.83445 | 23.29886 | 11090 ft | 331 kts | 341° |
| 2026-05-04 18:03 | 39.85543 | 23.28858 | 10919 ft | 322 kts | 341° |
| 2026-05-04 18:03 | 39.87605 | 23.27846 | 10739 ft | 312 kts | 341° |
| 2026-05-04 18:03 | 39.89607 | 23.26864 | 10591 ft | 303 kts | 341° |
| 2026-05-04 18:04 | 39.91549 | 23.25911 | 10427 ft | 294 kts | 340° |
| 2026-05-04 18:04 | 39.93435 | 23.24985 | 10268 ft | 286 kts | 340° |
| 2026-05-04 18:04 | 39.97059 | 23.23203 | 9837 ft | 275 kts | 340° |
| 2026-05-04 18:05 | 39.98843 | 23.22325 | 9486 ft | 273 kts | 340° |
| 2026-05-04 18:05 | 40.00615 | 23.21454 | 9169 ft | 271 kts | 341° |
| 2026-05-04 18:05 | 40.02343 | 23.20584 | 8851 ft | 269 kts | 338° |
| 2026-05-04 18:05 | 40.04037 | 23.19548 | 8520 ft | 268 kts | 336° |
| 2026-05-04 18:06 | 40.07392 | 23.17502 | 7933 ft | 264 kts | 337° |
| 2026-05-04 18:06 | 40.09049 | 23.16499 | 7631 ft | 262 kts | 337° |
| 2026-05-04 18:06 | 40.10699 | 23.15503 | 7333 ft | 260 kts | 337° |
| 2026-05-04 18:07 | 40.12339 | 23.14515 | 7044 ft | 259 kts | 337° |
| 2026-05-04 18:07 | 40.13966 | 23.13533 | 6743 ft | 257 kts | 337° |
| 2026-05-04 18:07 | 40.15586 | 23.12556 | 6455 ft | 256 kts | 337° |
| 2026-05-04 18:07 | 40.17199 | 23.11582 | 6147 ft | 254 kts | 337° |
| 2026-05-04 18:08 | 40.18801 | 23.10614 | 5834 ft | 253 kts | 337° |
| 2026-05-04 18:08 | 40.20377 | 23.09661 | 5506 ft | 253 kts | 336° |
| 2026-05-04 18:08 | 40.21974 | 23.08696 | 5194 ft | 252 kts | 336° |
| 2026-05-04 18:08 | 40.23562 | 23.07736 | 4946 ft | 249 kts | 336° |
| 2026-05-04 18:09 | 40.26602 | 23.05897 | 4672 ft | 232 kts | 336° |
| 2026-05-04 18:09 | 40.29439 | 23.04240 | 4421 ft | 214 kts | 343° |
| 2026-05-04 18:10 | 40.30854 | 23.03773 | 4175 ft | 212 kts | 347° |
| 2026-05-04 18:10 | 40.32272 | 23.03335 | 3986 ft | 206 kts | 346° |
| 2026-05-04 18:10 | 40.33625 | 23.02912 | 3944 ft | 193 kts | 346° |
| 2026-05-04 18:10 | 40.34900 | 23.02512 | 3967 ft | 187 kts | 346° |
| 2026-05-04 18:11 | 40.36154 | 23.02116 | 3996 ft | 179 kts | 346° |
| 2026-05-04 18:11 | 40.37323 | 23.01748 | 3899 ft | 171 kts | 346° |
| 2026-05-04 18:11 | 40.38491 | 23.01377 | 3528 ft | 175 kts | 345° |
| 2026-05-04 18:11 | 40.39697 | 23.00994 | 3107 ft | 182 kts | 345° |
| 2026-05-04 18:12 | 40.40947 | 23.00595 | 2678 ft | 187 kts | 344° |
| 2026-05-04 18:12 | 40.42225 | 23.00190 | 2273 ft | 190 kts | 343° |
| 2026-05-04 18:12 | 40.43479 | 22.99793 | 1894 ft | 184 kts | 343° |
| 2026-05-04 18:12 | 40.44663 | 22.99417 | 1617 ft | 168 kts | 343° |
| 2026-05-04 18:13 | 40.45757 | 22.99073 | 1332 ft | 154 kts | 344° |
| 2026-05-04 18:13 | 40.46752 | 22.98748 | 1078 ft | 147 kts | 343° |
| 2026-05-04 18:13 | 40.48751 | 22.98108 | 555 ft | 151 kts | 348° |
| 2026-05-04 18:14 | 40.49777 | 22.97785 | 362 ft | 153 kts | 348° |
| 2026-05-04 18:14 | 40.50813 | 22.97463 | 116 ft | 151 kts | 348° |
| 2026-05-04 18:14 | 40.51773 | 22.97159 | 22 ft | 123 kts | 347° |
| 2026-05-04 18:15 | 40.52612 | 22.96892 | 23 ft | 9 kts | 348° |
| 2026-05-04 18:15 | 40.52681 | 22.96978 | 27 ft | 7 kts | 77° |
| 2026-05-04 18:15 | 40.52677 | 22.97040 | 29 ft | 8 kts | 130° |
| 2026-05-04 18:16 | 40.52622 | 22.97072 | 27 ft | 10 kts | 168° |
| 2026-05-04 18:16 | 40.52537 | 22.97099 | 24 ft | 15 kts | 166° |
| 2026-05-04 18:16 | 40.52419 | 22.97140 | 19 ft | 19 kts | 155° |
| 2026-05-04 18:17 | 40.52350 | 22.97412 | 18 ft | 12 kts | 135° |
| 2026-05-04 18:17 | 40.52332 | 22.97456 | 19 ft | 3 kts | 72° |
| 2026-05-04 18:17 | 40.52360 | 22.97496 | 20 ft | 3 kts | 45° |
| 2026-05-04 18:18 | 40.52367 | 22.97505 | 21 ft | 0 kts | 45° |
| 2026-05-04 18:18 | 40.52368 | 22.97507 | 21 ft | 0 kts | 45° |
| 2026-05-04 18:18 | 40.52367 | 22.97506 | 21 ft | 0 kts | 45° |